sensor_id;sensor_type;location;lat;lon;timestamp;temperature;humidity
31837;DHT22;18401;49.344;6.240;2024-01-16T00:00:54;-0.20;99.90
31837;DHT22;18401;49.344;6.240;2024-01-16T00:03:19;-0.30;99.90
31837;DHT22;18401;49.344;6.240;2024-01-16T00:05:45;-0.30;99.90
31837;DHT22;18401;49.344;6.240;2024-01-16T00:08:11;-0.20;99.90
31837;DHT22;18401;49.344;6.240;2024-01-16T00:10:36;-0.10;99.90
31837;DHT22;18401;49.344;6.240;2024-01-16T00:13:02;-0.10;99.90
31837;DHT22;18401;49.344;6.240;2024-01-16T00:15:28;-0.20;99.90
31837;DHT22;18401;49.344;6.240;2024-01-16T00:17:53;-0.20;99.90
31837;DHT22;18401;49.344;6.240;2024-01-16T00:20:19;-0.20;99.90
31837;DHT22;18401;49.344;6.240;2024-01-16T00:22:45;-0.20;99.90
31837;DHT22;18401;49.344;6.240;2024-01-16T00:25:10;-0.30;99.90
31837;DHT22;18401;49.344;6.240;2024-01-16T00:27:36;-0.20;99.90
31837;DHT22;18401;49.344;6.240;2024-01-16T00:30:02;-0.20;99.90
31837;DHT22;18401;49.344;6.240;2024-01-16T00:32:28;-0.30;99.90
31837;DHT22;18401;49.344;6.240;2024-01-16T00:34:53;-0.20;99.90
31837;DHT22;18401;49.344;6.240;2024-01-16T00:37:19;-0.20;99.90
31837;DHT22;18401;49.344;6.240;2024-01-16T00:39:45;-0.30;99.90
31837;DHT22;18401;49.344;6.240;2024-01-16T00:42:10;-0.30;99.90
31837;DHT22;18401;49.344;6.240;2024-01-16T00:44:36;-0.20;99.90
31837;DHT22;18401;49.344;6.240;2024-01-16T00:47:02;-0.20;99.90
31837;DHT22;18401;49.344;6.240;2024-01-16T00:49:28;-0.30;99.90
31837;DHT22;18401;49.344;6.240;2024-01-16T00:51:54;-0.20;99.90
31837;DHT22;18401;49.344;6.240;2024-01-16T00:54:19;-0.20;99.90
31837;DHT22;18401;49.344;6.240;2024-01-16T00:56:46;-0.30;99.90
31837;DHT22;18401;49.344;6.240;2024-01-16T00:59:11;-0.40;99.90
31837;DHT22;18401;49.344;6.240;2024-01-16T01:01:38;-0.40;99.90
31837;DHT22;18401;49.344;6.240;2024-01-16T01:04:03;-0.40;99.90
31837;DHT22;18401;49.344;6.240;2024-01-16T01:06:29;-0.40;99.90
31837;DHT22;18401;49.344;6.240;2024-01-16T01:08:55;-0.40;99.90
31837;DHT22;18401;49.344;6.240;2024-01-16T01:11:20;-0.40;99.90
31837;DHT22;18401;49.344;6.240;2024-01-16T01:13:46;-0.30;99.90
31837;DHT22;18401;49.344;6.240;2024-01-16T01:16:11;-0.30;99.90
31837;DHT22;18401;49.344;6.240;2024-01-16T01:18:37;-0.30;99.90
31837;DHT22;18401;49.344;6.240;2024-01-16T01:21:03;-0.30;99.90
31837;DHT22;18401;49.344;6.240;2024-01-16T01:23:28;-0.30;99.90
31837;DHT22;18401;49.344;6.240;2024-01-16T01:25:54;-0.30;99.90
31837;DHT22;18401;49.344;6.240;2024-01-16T01:28:20;-0.30;99.90
31837;DHT22;18401;49.344;6.240;2024-01-16T01:30:45;-0.30;99.90
31837;DHT22;18401;49.344;6.240;2024-01-16T01:33:11;-0.30;99.90
31837;DHT22;18401;49.344;6.240;2024-01-16T01:35:37;-0.20;99.90
31837;DHT22;18401;49.344;6.240;2024-01-16T01:38:03;-0.20;99.90
31837;DHT22;18401;49.344;6.240;2024-01-16T01:40:28;-0.20;99.90
31837;DHT22;18401;49.344;6.240;2024-01-16T01:42:54;-0.20;99.90
31837;DHT22;18401;49.344;6.240;2024-01-16T01:45:20;-0.30;99.90
31837;DHT22;18401;49.344;6.240;2024-01-16T01:47:46;-0.30;99.90
31837;DHT22;18401;49.344;6.240;2024-01-16T01:50:13;-0.20;99.90
31837;DHT22;18401;49.344;6.240;2024-01-16T01:52:41;-0.20;99.90
31837;DHT22;18401;49.344;6.240;2024-01-16T01:55:11;-0.20;99.90
31837;DHT22;18401;49.344;6.240;2024-01-16T01:57:38;-0.30;99.90
31837;DHT22;18401;49.344;6.240;2024-01-16T02:00:04;-0.20;99.90
31837;DHT22;18401;49.344;6.240;2024-01-16T02:02:32;-0.20;99.90
31837;DHT22;18401;49.344;6.240;2024-01-16T02:04:58;-0.20;99.90
31837;DHT22;18401;49.344;6.240;2024-01-16T02:07:24;-0.20;99.90
31837;DHT22;18401;49.344;6.240;2024-01-16T02:09:50;-0.20;99.90
31837;DHT22;18401;49.344;6.240;2024-01-16T02:12:15;-0.30;99.90
31837;DHT22;18401;49.344;6.240;2024-01-16T02:14:41;-0.30;99.90
31837;DHT22;18401;49.344;6.240;2024-01-16T02:17:07;-0.40;99.90
31837;DHT22;18401;49.344;6.240;2024-01-16T02:19:33;-0.40;99.90
31837;DHT22;18401;49.344;6.240;2024-01-16T02:22:00;-0.50;99.90
31837;DHT22;18401;49.344;6.240;2024-01-16T02:24:27;-0.50;99.90
31837;DHT22;18401;49.344;6.240;2024-01-16T02:26:53;-0.60;99.90
31837;DHT22;18401;49.344;6.240;2024-01-16T02:29:19;-0.60;99.90
31837;DHT22;18401;49.344;6.240;2024-01-16T02:31:45;-0.70;99.90
31837;DHT22;18401;49.344;6.240;2024-01-16T02:34:10;-0.70;99.90
31837;DHT22;18401;49.344;6.240;2024-01-16T02:36:36;-0.80;99.90
31837;DHT22;18401;49.344;6.240;2024-01-16T02:39:02;-0.90;99.90
31837;DHT22;18401;49.344;6.240;2024-01-16T02:41:28;-0.90;99.90
31837;DHT22;18401;49.344;6.240;2024-01-16T02:43:54;-0.90;99.90
31837;DHT22;18401;49.344;6.240;2024-01-16T02:46:19;-1.00;99.90
31837;DHT22;18401;49.344;6.240;2024-01-16T02:48:45;-1.00;99.90
31837;DHT22;18401;49.344;6.240;2024-01-16T02:51:10;-0.80;99.90
31837;DHT22;18401;49.344;6.240;2024-01-16T02:53:36;-0.90;99.90
31837;DHT22;18401;49.344;6.240;2024-01-16T02:56:02;-0.80;99.90
31837;DHT22;18401;49.344;6.240;2024-01-16T02:58:28;-0.80;99.90
31837;DHT22;18401;49.344;6.240;2024-01-16T03:00:55;-0.80;99.90
31837;DHT22;18401;49.344;6.240;2024-01-16T03:03:21;-0.90;99.90
31837;DHT22;18401;49.344;6.240;2024-01-16T03:05:47;-0.90;99.90
31837;DHT22;18401;49.344;6.240;2024-01-16T03:08:13;-1.00;99.90
31837;DHT22;18401;49.344;6.240;2024-01-16T03:10:39;-1.10;99.90
31837;DHT22;18401;49.344;6.240;2024-01-16T03:13:04;-1.20;99.90
31837;DHT22;18401;49.344;6.240;2024-01-16T03:15:30;-1.40;99.90
31837;DHT22;18401;49.344;6.240;2024-01-16T03:17:57;-1.40;99.90
31837;DHT22;18401;49.344;6.240;2024-01-16T03:20:22;-1.60;99.90
31837;DHT22;18401;49.344;6.240;2024-01-16T03:22:49;-1.80;99.90
31837;DHT22;18401;49.344;6.240;2024-01-16T03:25:15;-1.90;99.90
31837;DHT22;18401;49.344;6.240;2024-01-16T03:27:41;-1.90;99.90
31837;DHT22;18401;49.344;6.240;2024-01-16T03:30:07;-2.00;99.90
31837;DHT22;18401;49.344;6.240;2024-01-16T03:32:34;-2.10;99.90
31837;DHT22;18401;49.344;6.240;2024-01-16T03:35:00;-2.10;1.00
31837;DHT22;18401;49.344;6.240;2024-01-16T03:37:25;-2.30;1.00
31837;DHT22;18401;49.344;6.240;2024-01-16T03:39:51;-2.30;1.00
31837;DHT22;18401;49.344;6.240;2024-01-16T03:42:16;-2.70;99.90
31837;DHT22;18401;49.344;6.240;2024-01-16T03:44:43;-2.40;57.90
31837;DHT22;18401;49.344;6.240;2024-01-16T03:47:08;-2.40;26.50
31837;DHT22;18401;49.344;6.240;2024-01-16T03:49:34;-2.40;34.60
31837;DHT22;18401;49.344;6.240;2024-01-16T03:52:00;-2.30;54.60
31837;DHT22;18401;49.344;6.240;2024-01-16T03:54:26;-2.30;52.60
31837;DHT22;18401;49.344;6.240;2024-01-16T03:56:52;-2.40;43.70
31837;DHT22;18401;49.344;6.240;2024-01-16T03:59:18;-2.50;43.30
31837;DHT22;18401;49.344;6.240;2024-01-16T04:01:45;-2.50;28.40
31837;DHT22;18401;49.344;6.240;2024-01-16T04:04:13;-2.60;27.70
31837;DHT22;18401;49.344;6.240;2024-01-16T04:06:38;-2.70;50.70
31837;DHT22;18401;49.344;6.240;2024-01-16T04:09:07;-2.70;77.00
31837;DHT22;18401;49.344;6.240;2024-01-16T04:11:33;-2.60;91.90
31837;DHT22;18401;49.344;6.240;2024-01-16T04:13:59;-2.70;87.50
31837;DHT22;18401;49.344;6.240;2024-01-16T04:16:25;-2.80;71.30
31837;DHT22;18401;49.344;6.240;2024-01-16T04:18:51;-2.90;86.70
31837;DHT22;18401;49.344;6.240;2024-01-16T04:21:16;-3.00;99.90
31837;DHT22;18401;49.344;6.240;2024-01-16T04:23:42;-3.10;99.90
31837;DHT22;18401;49.344;6.240;2024-01-16T04:26:08;-3.20;99.90
31837;DHT22;18401;49.344;6.240;2024-01-16T04:28:33;-3.20;99.90
31837;DHT22;18401;49.344;6.240;2024-01-16T04:31:00;-3.30;99.90
31837;DHT22;18401;49.344;6.240;2024-01-16T04:33:27;-3.30;99.90
31837;DHT22;18401;49.344;6.240;2024-01-16T04:35:52;-3.30;99.90
31837;DHT22;18401;49.344;6.240;2024-01-16T04:38:18;-3.40;99.90
31837;DHT22;18401;49.344;6.240;2024-01-16T04:40:44;-3.40;99.90
31837;DHT22;18401;49.344;6.240;2024-01-16T04:43:09;-3.30;99.90
31837;DHT22;18401;49.344;6.240;2024-01-16T04:45:35;-3.30;99.90
31837;DHT22;18401;49.344;6.240;2024-01-16T04:48:00;-3.40;99.90
31837;DHT22;18401;49.344;6.240;2024-01-16T04:50:26;-3.40;99.90
31837;DHT22;18401;49.344;6.240;2024-01-16T04:52:57;-3.40;99.90
31837;DHT22;18401;49.344;6.240;2024-01-16T04:55:28;-3.40;99.90
31837;DHT22;18401;49.344;6.240;2024-01-16T04:57:55;-3.40;99.90
31837;DHT22;18401;49.344;6.240;2024-01-16T05:00:21;-3.50;99.90
31837;DHT22;18401;49.344;6.240;2024-01-16T05:02:47;-3.50;99.90
31837;DHT22;18401;49.344;6.240;2024-01-16T05:05:13;-3.60;99.90
31837;DHT22;18401;49.344;6.240;2024-01-16T05:07:39;-3.60;99.90
31837;DHT22;18401;49.344;6.240;2024-01-16T05:10:05;-3.60;99.90
31837;DHT22;18401;49.344;6.240;2024-01-16T05:12:31;-3.60;99.90
31837;DHT22;18401;49.344;6.240;2024-01-16T05:14:57;-3.60;99.90
31837;DHT22;18401;49.344;6.240;2024-01-16T05:17:23;-3.70;99.90
31837;DHT22;18401;49.344;6.240;2024-01-16T05:19:49;-3.60;99.90
31837;DHT22;18401;49.344;6.240;2024-01-16T05:22:15;-3.70;99.90
31837;DHT22;18401;49.344;6.240;2024-01-16T05:24:41;-3.80;99.90
31837;DHT22;18401;49.344;6.240;2024-01-16T05:27:06;-3.80;99.90
31837;DHT22;18401;49.344;6.240;2024-01-16T05:29:32;-3.80;99.90
31837;DHT22;18401;49.344;6.240;2024-01-16T05:31:57;-3.90;99.90
31837;DHT22;18401;49.344;6.240;2024-01-16T05:34:23;-3.90;99.90
31837;DHT22;18401;49.344;6.240;2024-01-16T05:36:49;-3.90;99.90
31837;DHT22;18401;49.344;6.240;2024-01-16T05:39:15;-3.80;99.90
31837;DHT22;18401;49.344;6.240;2024-01-16T05:41:40;-3.70;99.90
31837;DHT22;18401;49.344;6.240;2024-01-16T05:44:06;-3.70;99.90
31837;DHT22;18401;49.344;6.240;2024-01-16T05:46:32;-3.70;99.90
31837;DHT22;18401;49.344;6.240;2024-01-16T05:48:58;-3.60;99.90
31837;DHT22;18401;49.344;6.240;2024-01-16T05:51:24;-3.60;1.00
31837;DHT22;18401;49.344;6.240;2024-01-16T05:53:51;-3.80;99.90
31837;DHT22;18401;49.344;6.240;2024-01-16T05:56:16;-3.90;99.90
31837;DHT22;18401;49.344;6.240;2024-01-16T05:58:42;-4.10;99.90
31837;DHT22;18401;49.344;6.240;2024-01-16T06:01:07;-4.20;99.90
31837;DHT22;18401;49.344;6.240;2024-01-16T06:03:33;-4.30;99.90
31837;DHT22;18401;49.344;6.240;2024-01-16T06:05:58;-4.40;99.90
31837;DHT22;18401;49.344;6.240;2024-01-16T06:08:25;-4.30;99.90
31837;DHT22;18401;49.344;6.240;2024-01-16T06:10:50;-4.20;1.00
31837;DHT22;18401;49.344;6.240;2024-01-16T06:13:19;-4.10;1.00
31837;DHT22;18401;49.344;6.240;2024-01-16T06:15:45;-4.00;1.00
31837;DHT22;18401;49.344;6.240;2024-01-16T06:18:11;-3.90;12.30
31837;DHT22;18401;49.344;6.240;2024-01-16T06:20:36;-3.80;23.10
31837;DHT22;18401;49.344;6.240;2024-01-16T06:23:02;-3.80;16.00
31837;DHT22;18401;49.344;6.240;2024-01-16T06:25:28;-3.70;13.40
31837;DHT22;18401;49.344;6.240;2024-01-16T06:27:53;-3.60;9.10
31837;DHT22;18401;49.344;6.240;2024-01-16T06:30:19;-3.60;1.00
31837;DHT22;18401;49.344;6.240;2024-01-16T06:32:44;-3.60;1.00
31837;DHT22;18401;49.344;6.240;2024-01-16T06:35:12;-3.70;1.00
31837;DHT22;18401;49.344;6.240;2024-01-16T06:37:38;-3.70;1.00
31837;DHT22;18401;49.344;6.240;2024-01-16T06:40:04;-3.70;1.00
31837;DHT22;18401;49.344;6.240;2024-01-16T06:42:31;-3.80;1.00
31837;DHT22;18401;49.344;6.240;2024-01-16T06:44:57;-3.90;99.90
31837;DHT22;18401;49.344;6.240;2024-01-16T06:47:22;-3.90;99.90
31837;DHT22;18401;49.344;6.240;2024-01-16T06:49:49;-4.20;99.90
31837;DHT22;18401;49.344;6.240;2024-01-16T06:52:15;-4.30;99.90
31837;DHT22;18401;49.344;6.240;2024-01-16T06:54:40;-4.40;99.90
31837;DHT22;18401;49.344;6.240;2024-01-16T06:57:06;-4.60;99.90
31837;DHT22;18401;49.344;6.240;2024-01-16T06:59:32;-4.60;99.90
31837;DHT22;18401;49.344;6.240;2024-01-16T07:01:57;-4.80;99.90
31837;DHT22;18401;49.344;6.240;2024-01-16T07:04:23;-5.10;99.90
31837;DHT22;18401;49.344;6.240;2024-01-16T07:06:49;-5.20;99.90
31837;DHT22;18401;49.344;6.240;2024-01-16T07:09:14;-5.30;99.90
31837;DHT22;18401;49.344;6.240;2024-01-16T07:11:41;-5.30;99.90
31837;DHT22;18401;49.344;6.240;2024-01-16T07:14:09;-5.10;99.90
31837;DHT22;18401;49.344;6.240;2024-01-16T07:16:35;-4.90;1.00
31837;DHT22;18401;49.344;6.240;2024-01-16T07:19:01;-4.70;27.60
31837;DHT22;18401;49.344;6.240;2024-01-16T07:21:26;-4.90;1.00
31837;DHT22;18401;49.344;6.240;2024-01-16T07:23:53;-4.90;1.00
31837;DHT22;18401;49.344;6.240;2024-01-16T07:26:19;-5.00;1.00
31837;DHT22;18401;49.344;6.240;2024-01-16T07:28:45;-4.80;61.30
31837;DHT22;18401;49.344;6.240;2024-01-16T07:31:10;-4.60;99.90
31837;DHT22;18401;49.344;6.240;2024-01-16T07:33:37;-4.50;99.90
31837;DHT22;18401;49.344;6.240;2024-01-16T07:36:02;-4.40;99.90
31837;DHT22;18401;49.344;6.240;2024-01-16T07:38:28;-4.50;99.90
31837;DHT22;18401;49.344;6.240;2024-01-16T07:40:54;-4.40;99.90
31837;DHT22;18401;49.344;6.240;2024-01-16T07:43:21;-4.40;99.90
31837;DHT22;18401;49.344;6.240;2024-01-16T07:45:47;-4.40;99.90
31837;DHT22;18401;49.344;6.240;2024-01-16T07:48:13;-4.50;97.80
31837;DHT22;18401;49.344;6.240;2024-01-16T07:50:40;-4.40;99.90
31837;DHT22;18401;49.344;6.240;2024-01-16T07:53:06;-4.30;99.90
31837;DHT22;18401;49.344;6.240;2024-01-16T07:55:31;-4.40;99.90
31837;DHT22;18401;49.344;6.240;2024-01-16T07:57:57;-4.40;92.30
31837;DHT22;18401;49.344;6.240;2024-01-16T08:00:23;-4.30;88.40
31837;DHT22;18401;49.344;6.240;2024-01-16T08:02:48;-4.20;56.20
31837;DHT22;18401;49.344;6.240;2024-01-16T08:05:14;-4.20;20.40
31837;DHT22;18401;49.344;6.240;2024-01-16T08:07:42;-4.10;7.20
31837;DHT22;18401;49.344;6.240;2024-01-16T08:10:09;-4.00;1.00
31837;DHT22;18401;49.344;6.240;2024-01-16T08:12:35;-4.00;1.00
31837;DHT22;18401;49.344;6.240;2024-01-16T08:15:03;-3.90;1.00
31837;DHT22;18401;49.344;6.240;2024-01-16T08:17:28;-3.80;1.00
31837;DHT22;18401;49.344;6.240;2024-01-16T08:19:54;-3.70;99.90
31837;DHT22;18401;49.344;6.240;2024-01-16T08:22:20;-3.60;99.90
31837;DHT22;18401;49.344;6.240;2024-01-16T08:24:45;-3.50;99.90
31837;DHT22;18401;49.344;6.240;2024-01-16T08:27:11;-3.50;99.90
31837;DHT22;18401;49.344;6.240;2024-01-16T08:29:37;-3.40;99.90
31837;DHT22;18401;49.344;6.240;2024-01-16T08:32:03;-3.30;99.90
31837;DHT22;18401;49.344;6.240;2024-01-16T08:34:29;-3.20;99.90
31837;DHT22;18401;49.344;6.240;2024-01-16T08:36:55;-3.10;99.90
31837;DHT22;18401;49.344;6.240;2024-01-16T08:39:22;-3.00;99.90
31837;DHT22;18401;49.344;6.240;2024-01-16T08:41:49;-3.00;99.90
31837;DHT22;18401;49.344;6.240;2024-01-16T08:44:15;-2.90;99.90
31837;DHT22;18401;49.344;6.240;2024-01-16T08:46:41;-2.90;99.90
31837;DHT22;18401;49.344;6.240;2024-01-16T08:49:06;-2.80;99.90
31837;DHT22;18401;49.344;6.240;2024-01-16T08:51:32;-2.80;93.70
31837;DHT22;18401;49.344;6.240;2024-01-16T08:53:58;-2.80;90.00
31837;DHT22;18401;49.344;6.240;2024-01-16T08:56:24;-2.70;55.90
31837;DHT22;18401;49.344;6.240;2024-01-16T08:58:51;-2.70;41.80
31837;DHT22;18401;49.344;6.240;2024-01-16T09:01:16;-2.60;51.60
31837;DHT22;18401;49.344;6.240;2024-01-16T09:03:42;-2.50;24.30
31837;DHT22;18401;49.344;6.240;2024-01-16T09:06:08;-2.60;1.00
31837;DHT22;18401;49.344;6.240;2024-01-16T09:08:35;-2.60;1.00
31837;DHT22;18401;49.344;6.240;2024-01-16T09:11:01;-2.50;1.00
31837;DHT22;18401;49.344;6.240;2024-01-16T09:13:27;-2.40;1.00
31837;DHT22;18401;49.344;6.240;2024-01-16T09:15:52;-2.50;1.00
31837;DHT22;18401;49.344;6.240;2024-01-16T09:18:18;-2.40;1.00
31837;DHT22;18401;49.344;6.240;2024-01-16T09:20:44;-2.20;1.00
31837;DHT22;18401;49.344;6.240;2024-01-16T09:23:10;-2.00;99.90
31837;DHT22;18401;49.344;6.240;2024-01-16T09:25:36;-2.00;99.90
31837;DHT22;18401;49.344;6.240;2024-01-16T09:28:02;-2.00;99.90
31837;DHT22;18401;49.344;6.240;2024-01-16T09:30:27;-2.00;99.90
31837;DHT22;18401;49.344;6.240;2024-01-16T09:32:53;-1.60;99.90
31837;DHT22;18401;49.344;6.240;2024-01-16T09:35:19;-1.40;99.90
31837;DHT22;18401;49.344;6.240;2024-01-16T09:37:45;-1.40;99.90
31837;DHT22;18401;49.344;6.240;2024-01-16T09:40:11;-1.70;99.90
31837;DHT22;18401;49.344;6.240;2024-01-16T09:42:36;-2.10;99.90
31837;DHT22;18401;49.344;6.240;2024-01-16T09:45:02;-2.20;99.90
31837;DHT22;18401;49.344;6.240;2024-01-16T09:47:30;-2.10;99.90
31837;DHT22;18401;49.344;6.240;2024-01-16T09:49:57;-1.90;99.90
31837;DHT22;18401;49.344;6.240;2024-01-16T09:52:24;-1.70;99.90
31837;DHT22;18401;49.344;6.240;2024-01-16T09:54:50;-1.30;99.90
31837;DHT22;18401;49.344;6.240;2024-01-16T09:57:19;-0.90;99.90
31837;DHT22;18401;49.344;6.240;2024-01-16T09:59:48;-0.90;99.90
31837;DHT22;18401;49.344;6.240;2024-01-16T10:02:14;-0.90;99.90
31837;DHT22;18401;49.344;6.240;2024-01-16T10:04:43;-0.90;99.90
31837;DHT22;18401;49.344;6.240;2024-01-16T10:07:10;-0.80;99.90
31837;DHT22;18401;49.344;6.240;2024-01-16T10:09:38;-0.20;99.90
31837;DHT22;18401;49.344;6.240;2024-01-16T10:12:05;0.50;99.90
31837;DHT22;18401;49.344;6.240;2024-01-16T10:14:32;1.00;99.90
31837;DHT22;18401;49.344;6.240;2024-01-16T10:17:02;1.30;99.90
31837;DHT22;18401;49.344;6.240;2024-01-16T10:19:31;1.50;99.90
31837;DHT22;18401;49.344;6.240;2024-01-16T10:22:06;1.60;99.90
31837;DHT22;18401;49.344;6.240;2024-01-16T10:24:31;2.40;99.90
31837;DHT22;18401;49.344;6.240;2024-01-16T10:26:59;2.90;99.90
31837;DHT22;18401;49.344;6.240;2024-01-16T10:29:26;2.80;99.90
31837;DHT22;18401;49.344;6.240;2024-01-16T10:31:52;2.90;99.90
31837;DHT22;18401;49.344;6.240;2024-01-16T10:34:22;2.90;99.90
31837;DHT22;18401;49.344;6.240;2024-01-16T10:36:58;3.20;99.40
31837;DHT22;18401;49.344;6.240;2024-01-16T10:39:24;3.20;99.40
31837;DHT22;18401;49.344;6.240;2024-01-16T10:41:59;3.50;98.70
31837;DHT22;18401;49.344;6.240;2024-01-16T10:44:25;3.80;98.00
31837;DHT22;18401;49.344;6.240;2024-01-16T10:47:09;4.10;98.20
31837;DHT22;18401;49.344;6.240;2024-01-16T10:49:37;4.30;96.30
31837;DHT22;18401;49.344;6.240;2024-01-16T10:52:05;4.40;98.70
31837;DHT22;18401;49.344;6.240;2024-01-16T10:54:35;4.10;94.50
31837;DHT22;18401;49.344;6.240;2024-01-16T10:57:03;3.70;93.70
31837;DHT22;18401;49.344;6.240;2024-01-16T10:59:42;3.40;97.50
31837;DHT22;18401;49.344;6.240;2024-01-16T11:02:14;4.10;93.20
31837;DHT22;18401;49.344;6.240;2024-01-16T11:04:42;4.20;92.40
31837;DHT22;18401;49.344;6.240;2024-01-16T11:07:08;4.70;91.70
31837;DHT22;18401;49.344;6.240;2024-01-16T11:09:36;4.80;91.50
31837;DHT22;18401;49.344;6.240;2024-01-16T11:12:03;4.60;89.40
31837;DHT22;18401;49.344;6.240;2024-01-16T11:14:30;5.00;90.60
31837;DHT22;18401;49.344;6.240;2024-01-16T11:16:58;5.20;90.10
31837;DHT22;18401;49.344;6.240;2024-01-16T11:19:26;4.60;85.90
31837;DHT22;18401;49.344;6.240;2024-01-16T11:21:53;4.10;91.90
31837;DHT22;18401;49.344;6.240;2024-01-16T11:24:21;5.40;91.10
31837;DHT22;18401;49.344;6.240;2024-01-16T11:26:47;5.30;86.80
31837;DHT22;18401;49.344;6.240;2024-01-16T11:29:45;5.30;88.10
31837;DHT22;18401;49.344;6.240;2024-01-16T11:32:36;5.50;87.50
31837;DHT22;18401;49.344;6.240;2024-01-16T11:35:04;4.90;83.10
31837;DHT22;18401;49.344;6.240;2024-01-16T11:37:30;5.20;84.20
31837;DHT22;18401;49.344;6.240;2024-01-16T11:42:42;5.20;83.80
31837;DHT22;18401;49.344;6.240;2024-01-16T11:45:47;5.70;87.00
31837;DHT22;18401;49.344;6.240;2024-01-16T11:48:16;5.80;86.20
31837;DHT22;18401;49.344;6.240;2024-01-16T11:50:42;5.70;83.60
31837;DHT22;18401;49.344;6.240;2024-01-16T11:53:08;5.40;80.90
31837;DHT22;18401;49.344;6.240;2024-01-16T11:58:45;5.60;82.10
31837;DHT22;18401;49.344;6.240;2024-01-16T12:01:14;5.60;81.00
31837;DHT22;18401;49.344;6.240;2024-01-16T12:03:41;6.20;86.20
31837;DHT22;18401;49.344;6.240;2024-01-16T12:06:07;6.50;89.60
31837;DHT22;18401;49.344;6.240;2024-01-16T12:08:34;7.00;92.40
31837;DHT22;18401;49.344;6.240;2024-01-16T12:11:02;6.80;94.90
31837;DHT22;18401;49.344;6.240;2024-01-16T12:13:27;5.80;87.30
31837;DHT22;18401;49.344;6.240;2024-01-16T12:16:03;5.30;77.00
31837;DHT22;18401;49.344;6.240;2024-01-16T12:18:29;4.70;69.50
31837;DHT22;18401;49.344;6.240;2024-01-16T12:20:55;5.30;75.60
31837;DHT22;18401;49.344;6.240;2024-01-16T12:23:21;5.20;75.80
31837;DHT22;18401;49.344;6.240;2024-01-16T12:25:52;5.80;79.60
31837;DHT22;18401;49.344;6.240;2024-01-16T12:28:20;4.90;68.20
31837;DHT22;18401;49.344;6.240;2024-01-16T12:30:50;4.90;68.50
31837;DHT22;18401;49.344;6.240;2024-01-16T12:33:18;4.60;67.20
31837;DHT22;18401;49.344;6.240;2024-01-16T12:35:46;4.60;66.90
31837;DHT22;18401;49.344;6.240;2024-01-16T12:38:13;5.00;68.50
31837;DHT22;18401;49.344;6.240;2024-01-16T12:40:47;5.20;69.20
31837;DHT22;18401;49.344;6.240;2024-01-16T12:43:13;4.90;67.20
31837;DHT22;18401;49.344;6.240;2024-01-16T12:45:39;4.50;63.80
31837;DHT22;18401;49.344;6.240;2024-01-16T12:48:05;4.10;61.10
31837;DHT22;18401;49.344;6.240;2024-01-16T12:50:32;4.40;62.60
31837;DHT22;18401;49.344;6.240;2024-01-16T12:55:30;4.30;61.30
31837;DHT22;18401;49.344;6.240;2024-01-16T12:58:19;4.20;58.70
31837;DHT22;18401;49.344;6.240;2024-01-16T13:00:49;4.60;61.80
31837;DHT22;18401;49.344;6.240;2024-01-16T13:03:25;5.10;66.90
31837;DHT22;18401;49.344;6.240;2024-01-16T13:05:57;5.30;73.20
31837;DHT22;18401;49.344;6.240;2024-01-16T13:08:22;3.40;54.70
31837;DHT22;18401;49.344;6.240;2024-01-16T13:11:07;3.20;53.10
31837;DHT22;18401;49.344;6.240;2024-01-16T13:13:33;2.30;55.60
31837;DHT22;18401;49.344;6.240;2024-01-16T13:16:00;2.40;63.30
31837;DHT22;18401;49.344;6.240;2024-01-16T13:18:27;3.30;62.90
31837;DHT22;18401;49.344;6.240;2024-01-16T13:20:55;4.40;60.90
31837;DHT22;18401;49.344;6.240;2024-01-16T13:23:22;4.40;60.50
31837;DHT22;18401;49.344;6.240;2024-01-16T13:25:49;4.60;58.90
31837;DHT22;18401;49.344;6.240;2024-01-16T13:28:16;3.80;54.60
31837;DHT22;18401;49.344;6.240;2024-01-16T13:30:43;2.80;55.50
31837;DHT22;18401;49.344;6.240;2024-01-16T13:33:09;3.20;54.40
31837;DHT22;18401;49.344;6.240;2024-01-16T13:35:37;3.10;50.10
31837;DHT22;18401;49.344;6.240;2024-01-16T13:38:03;2.30;54.80
31837;DHT22;18401;49.344;6.240;2024-01-16T13:40:30;2.50;54.80
31837;DHT22;18401;49.344;6.240;2024-01-16T13:42:55;2.50;54.70
31837;DHT22;18401;49.344;6.240;2024-01-16T13:45:21;3.30;58.40
31837;DHT22;18401;49.344;6.240;2024-01-16T13:47:48;4.00;57.90
31837;DHT22;18401;49.344;6.240;2024-01-16T13:50:14;4.10;52.90
31837;DHT22;18401;49.344;6.240;2024-01-16T13:52:40;3.40;47.80
31837;DHT22;18401;49.344;6.240;2024-01-16T13:55:08;4.20;57.40
31837;DHT22;18401;49.344;6.240;2024-01-16T13:57:34;3.60;49.50
31837;DHT22;18401;49.344;6.240;2024-01-16T14:00:02;3.90;48.80
31837;DHT22;18401;49.344;6.240;2024-01-16T14:02:28;3.60;46.50
31837;DHT22;18401;49.344;6.240;2024-01-16T14:04:54;4.10;49.10
31837;DHT22;18401;49.344;6.240;2024-01-16T14:07:19;5.00;53.90
31837;DHT22;18401;49.344;6.240;2024-01-16T14:09:45;3.50;47.40
31837;DHT22;18401;49.344;6.240;2024-01-16T14:12:10;2.10;38.70
31837;DHT22;18401;49.344;6.240;2024-01-16T14:14:37;3.30;44.80
31837;DHT22;18401;49.344;6.240;2024-01-16T14:17:04;4.40;49.40
31837;DHT22;18401;49.344;6.240;2024-01-16T14:19:30;5.60;60.30
31837;DHT22;18401;49.344;6.240;2024-01-16T14:21:56;5.40;78.10
31837;DHT22;18401;49.344;6.240;2024-01-16T14:24:22;4.00;50.90
31837;DHT22;18401;49.344;6.240;2024-01-16T14:26:47;3.50;44.10
31837;DHT22;18401;49.344;6.240;2024-01-16T14:29:13;3.00;40.40
31837;DHT22;18401;49.344;6.240;2024-01-16T14:31:39;2.40;37.60
31837;DHT22;18401;49.344;6.240;2024-01-16T14:34:10;2.40;37.10
31837;DHT22;18401;49.344;6.240;2024-01-16T14:36:39;4.60;48.30
31837;DHT22;18401;49.344;6.240;2024-01-16T14:39:05;4.40;50.10
31837;DHT22;18401;49.344;6.240;2024-01-16T14:41:30;4.50;49.70
31837;DHT22;18401;49.344;6.240;2024-01-16T14:43:57;3.60;43.90
31837;DHT22;18401;49.344;6.240;2024-01-16T14:46:22;3.40;42.60
31837;DHT22;18401;49.344;6.240;2024-01-16T14:48:48;3.60;43.00
31837;DHT22;18401;49.344;6.240;2024-01-16T14:51:14;3.80;43.90
31837;DHT22;18401;49.344;6.240;2024-01-16T14:53:39;4.70;48.60
31837;DHT22;18401;49.344;6.240;2024-01-16T14:56:05;4.80;53.40
31837;DHT22;18401;49.344;6.240;2024-01-16T14:58:31;4.20;50.50
31837;DHT22;18401;49.344;6.240;2024-01-16T15:00:57;3.80;47.00
31837;DHT22;18401;49.344;6.240;2024-01-16T15:03:23;4.30;48.70
31837;DHT22;18401;49.344;6.240;2024-01-16T15:05:50;4.10;47.50
31837;DHT22;18401;49.344;6.240;2024-01-16T15:08:17;4.00;47.30
31837;DHT22;18401;49.344;6.240;2024-01-16T15:10:44;4.00;43.70
31837;DHT22;18401;49.344;6.240;2024-01-16T15:13:09;5.00;52.10
31837;DHT22;18401;49.344;6.240;2024-01-16T15:15:35;4.40;48.70
31837;DHT22;18401;49.344;6.240;2024-01-16T15:18:02;3.90;44.40
31837;DHT22;18401;49.344;6.240;2024-01-16T15:20:28;3.90;44.60
31837;DHT22;18401;49.344;6.240;2024-01-16T15:22:54;4.70;54.60
31837;DHT22;18401;49.344;6.240;2024-01-16T15:25:20;4.50;53.60
31837;DHT22;18401;49.344;6.240;2024-01-16T15:27:48;4.60;55.30
31837;DHT22;18401;49.344;6.240;2024-01-16T15:30:19;3.60;44.00
31837;DHT22;18401;49.344;6.240;2024-01-16T15:32:45;3.60;41.80
31837;DHT22;18401;49.344;6.240;2024-01-16T15:35:11;2.90;37.40
31837;DHT22;18401;49.344;6.240;2024-01-16T15:37:36;2.50;34.50
31837;DHT22;18401;49.344;6.240;2024-01-16T15:40:04;2.60;35.30
31837;DHT22;18401;49.344;6.240;2024-01-16T15:42:32;2.00;32.20